Time;durP1;ratioP1;P1;durP2;ratioP2;P2;SDS_P1;SDS_P2;PMS_P1;PMS_P2;Temp;Humidity;BMP_temperature;BMP_pressure;BME280_temperature;BME280_humidity;BME280_pressure;Samples;Min_cycle;Max_cycle;Signal;HPM_P1;HPM_P2
2023/12/13 00:01:24;;;;;;;4.90;3.22;;;21.40;53.40;;;;;;4977138;28;20042;-65
2023/12/13 00:03:50;;;;;;;5.25;3.22;;;21.40;53.40;;;;;;4979822;28;20065;-65
2023/12/13 00:06:16;;;;;;;3.83;2.55;;;21.40;53.40;;;;;;4986543;28;20030;-65
2023/12/13 00:08:42;;;;;;;4.65;3.17;;;21.40;53.40;;;;;;4985285;28;20042;-66
2023/12/13 00:11:07;;;;;;;4.30;2.75;;;21.40;53.40;;;;;;4980297;28;20042;-65
2023/12/13 00:13:33;;;;;;;4.00;2.70;;;21.40;53.40;;;;;;4982047;28;20026;-64
2023/12/13 00:16:00;;;;;;;4.88;2.85;;;21.40;53.40;;;;;;4987873;28;20031;-66
2023/12/13 00:18:25;;;;;;;3.45;2.38;;;21.40;53.40;;;;;;4984831;28;20040;-65
2023/12/13 00:20:51;;;;;;;4.20;2.40;;;21.40;53.40;;;;;;4987031;28;20413;-65
2023/12/13 00:23:16;;;;;;;3.15;2.33;;;21.40;53.40;;;;;;4984643;28;20182;-65
2023/12/13 00:25:42;;;;;;;4.07;2.70;;;21.40;53.40;;;;;;4979803;28;20022;-65
2023/12/13 00:28:07;;;;;;;3.85;2.63;;;21.40;53.40;;;;;;4981144;28;20027;-63
2023/12/13 00:30:33;;;;;;;3.38;2.42;;;21.40;53.40;;;;;;4978237;28;20492;-65
2023/12/13 00:32:59;;;;;;;3.65;2.50;;;21.40;53.40;;;;;;4979809;28;20457;-65
2023/12/13 00:35:24;;;;;;;5.28;2.75;;;21.40;53.50;;;;;;4986386;28;20100;-67
2023/12/13 00:37:50;;;;;;;3.03;2.20;;;21.40;53.40;;;;;;4981197;28;20412;-66
2023/12/13 00:40:17;;;;;;;3.45;2.22;;;21.40;53.40;;;;;;4981851;28;20097;-66
2023/12/13 00:42:43;;;;;;;3.22;2.40;;;21.40;53.40;;;;;;4986389;28;20022;-67
2023/12/13 00:45:08;;;;;;;2.63;2.05;;;21.40;53.40;;;;;;4975807;28;20034;-65
2023/12/13 00:47:34;;;;;;;2.65;1.77;;;21.40;53.40;;;;;;4981740;28;20035;-66
2023/12/13 00:49:59;;;;;;;3.22;2.00;;;21.40;53.40;;;;;;4974244;28;20084;-65
2023/12/13 00:52:26;;;;;;;5.47;2.67;;;21.40;53.40;;;;;;4976985;28;20560;-66
2023/12/13 00:54:52;;;;;;;4.00;2.17;;;21.40;53.40;;;;;;4985739;28;20053;-67
2023/12/13 00:57:17;;;;;;;3.15;2.03;;;21.40;53.40;;;;;;4975597;28;20026;-66
2023/12/13 00:59:43;;;;;;;3.63;2.35;;;21.40;53.40;;;;;;4981617;28;20042;-65
2023/12/13 01:02:08;;;;;;;3.30;2.25;;;21.40;53.40;;;;;;4982057;28;20130;-65
2023/12/13 01:04:36;;;;;;;3.20;2.17;;;21.40;53.40;;;;;;4976919;28;20410;-66
2023/12/13 01:07:02;;;;;;;3.90;2.10;;;21.40;53.50;;;;;;4981796;28;20523;-66
2023/12/13 01:09:28;;;;;;;3.53;2.33;;;21.30;53.60;;;;;;4982364;28;20038;-65
2023/12/13 01:11:53;;;;;;;3.80;2.10;;;21.30;53.60;;;;;;4979188;28;20054;-66
2023/12/13 01:14:18;;;;;;;3.78;2.33;;;21.30;53.70;;;;;;4994180;28;20042;-66
2023/12/13 01:16:44;;;;;;;2.45;1.75;;;21.20;53.80;;;;;;4990286;28;20038;-65
2023/12/13 01:19:10;;;;;;;3.03;1.70;;;21.10;53.90;;;;;;4984983;28;20031;-66
2023/12/13 01:21:35;;;;;;;3.05;2.20;;;21.10;54.00;;;;;;4981455;28;20030;-65
2023/12/13 01:24:02;;;;;;;3.13;1.90;;;21.10;54.10;;;;;;4987310;28;20048;-66
2023/12/13 01:26:27;;;;;;;3.13;2.03;;;21.00;54.30;;;;;;4986254;28;20517;-66
2023/12/13 01:28:53;;;;;;;2.75;1.65;;;20.90;54.30;;;;;;4987775;28;20026;-66
2023/12/13 01:31:18;;;;;;;3.60;1.50;;;20.90;54.40;;;;;;4988849;28;20501;-65
2023/12/13 01:33:44;;;;;;;2.83;1.90;;;20.80;54.50;;;;;;4990413;28;20026;-66
2023/12/13 01:36:09;;;;;;;2.65;1.75;;;20.80;54.50;;;;;;4950834;28;1000553;-66
2023/12/13 01:38:35;;;;;;;3.70;1.80;;;20.80;54.70;;;;;;4986602;28;20416;-66
2023/12/13 01:41:02;;;;;;;2.13;1.50;;;20.80;54.60;;;;;;4993370;28;20088;-66
2023/12/13 01:43:28;;;;;;;2.15;1.45;;;20.80;54.60;;;;;;4990052;28;20658;-66
2023/12/13 01:45:56;;;;;;;2.80;2.03;;;20.80;54.50;;;;;;4985585;28;20050;-66
2023/12/13 01:48:25;;;;;;;1.58;1.25;;;20.80;54.40;;;;;;4984756;28;20033;-66
2023/12/13 01:50:52;;;;;;;2.60;1.80;;;20.90;54.40;;;;;;4986008;28;21151;-66
2023/12/13 01:53:18;;;;;;;3.88;1.58;;;20.90;54.30;;;;;;4983576;28;20026;-66
2023/12/13 01:55:45;;;;;;;1.95;1.70;;;20.90;54.20;;;;;;4991723;28;20046;-66
2023/12/13 01:58:11;;;;;;;1.60;1.33;;;20.90;54.10;;;;;;4983748;28;20030;-65
2023/12/13 02:00:39;;;;;;;1.70;1.20;;;20.90;54.00;;;;;;4988209;28;20030;-65
2023/12/13 02:03:06;;;;;;;1.93;1.60;;;21.00;54.10;;;;;;4988617;28;20163;-66
2023/12/13 02:05:33;;;;;;;2.97;2.03;;;21.00;54.00;;;;;;4985700;28;20733;-66
2023/12/13 02:07:59;;;;;;;2.33;1.40;;;21.00;54.00;;;;;;4982890;28;20034;-66
2023/12/13 02:10:24;;;;;;;2.75;1.40;;;21.00;53.90;;;;;;4986345;28;20392;-65
2023/12/13 02:12:50;;;;;;;3.05;1.60;;;21.00;53.90;;;;;;4989724;28;20027;-65
2023/12/13 02:15:18;;;;;;;2.78;1.88;;;21.10;53.90;;;;;;4979880;28;20026;-65
2023/12/13 02:17:51;;;;;;;2.58;1.70;;;21.10;53.80;;;;;;4983133;28;20037;-65
2023/12/13 02:20:17;;;;;;;2.92;1.50;;;21.10;53.80;;;;;;4988081;28;20089;-64
2023/12/13 02:22:42;;;;;;;1.92;1.60;;;21.10;53.70;;;;;;4983277;28;20031;-65
2023/12/13 02:25:14;;;;;;;2.38;1.63;;;21.10;53.70;;;;;;4985122;28;20516;-66
2023/12/13 02:27:41;;;;;;;1.48;1.30;;;21.10;53.70;;;;;;4985215;28;20522;-65
2023/12/13 02:30:07;;;;;;;1.98;1.45;;;21.20;53.70;;;;;;4989734;28;20037;-66
2023/12/13 02:32:32;;;;;;;2.80;1.40;;;21.20;53.70;;;;;;4988490;28;20026;-65
2023/12/13 02:34:58;;;;;;;1.70;1.38;;;21.20;53.70;;;;;;4988984;28;20034;-65
2023/12/13 02:37:24;;;;;;;1.45;1.25;;;21.20;53.60;;;;;;4989340;28;20038;-65
2023/12/13 02:39:49;;;;;;;2.45;1.30;;;21.20;53.60;;;;;;4993632;28;20035;-65
2023/12/13 02:42:15;;;;;;;1.70;1.20;;;21.20;53.60;;;;;;4987223;28;20520;-66
2023/12/13 02:44:43;;;;;;;1.98;1.20;;;21.20;53.50;;;;;;4992893;28;20465;-66
2023/12/13 02:47:09;;;;;;;1.77;1.30;;;21.30;53.60;;;;;;5005113;28;20057;-66
2023/12/13 02:49:35;;;;;;;2.05;1.40;;;21.30;53.50;;;;;;4991466;28;20031;-65
2023/12/13 02:52:00;;;;;;;1.45;1.00;;;21.30;53.60;;;;;;4985169;28;20045;-65
2023/12/13 02:54:25;;;;;;;1.38;1.17;;;21.30;53.50;;;;;;4991799;28;20030;-65
2023/12/13 02:56:51;;;;;;;1.30;1.00;;;21.30;53.50;;;;;;4991329;28;21552;-65
2023/12/13 02:59:16;;;;;;;4.57;1.50;;;21.30;53.50;;;;;;4987669;28;20598;-65
2023/12/13 03:01:42;;;;;;;2.17;1.50;;;21.30;53.50;;;;;;4980998;28;20064;-65
2023/12/13 03:04:07;;;;;;;1.20;1.00;;;21.30;53.40;;;;;;4980392;28;20105;-64
2023/12/13 03:06:33;;;;;;;1.45;0.95;;;21.30;53.40;;;;;;4979203;28;20038;-63
2023/12/13 03:08:58;;;;;;;1.40;1.00;;;21.30;53.40;;;;;;4979689;28;20042;-65
2023/12/13 03:11:24;;;;;;;1.52;1.20;;;21.30;53.40;;;;;;4986443;28;20042;-66
2023/12/13 03:13:49;;;;;;;1.00;0.75;;;21.30;53.40;;;;;;4993222;28;20037;-66
2023/12/13 03:16:15;;;;;;;1.73;1.00;;;21.30;53.40;;;;;;4988396;28;20041;-65
2023/12/13 03:18:40;;;;;;;1.20;1.10;;;21.30;53.40;;;;;;4988936;28;20449;-65
2023/12/13 03:21:06;;;;;;;1.50;0.95;;;21.30;53.40;;;;;;4986899;28;20034;-65
2023/12/13 03:23:31;;;;;;;1.27;1.00;;;21.30;53.50;;;;;;4991108;28;20034;-63
2023/12/13 03:25:57;;;;;;;1.23;0.93;;;21.30;53.40;;;;;;4991020;28;20125;-65
2023/12/13 03:28:22;;;;;;;2.05;1.30;;;21.30;53.40;;;;;;4993027;28;20440;-64
2023/12/13 03:30:48;;;;;;;1.38;0.82;;;21.30;53.40;;;;;;4995555;28;20126;-65
2023/12/13 03:33:13;;;;;;;1.63;1.08;;;21.30;53.40;;;;;;4986957;28;20112;-65
2023/12/13 03:35:39;;;;;;;1.63;0.95;;;21.30;53.40;;;;;;4989410;28;20497;-65
2023/12/13 03:38:05;;;;;;;1.50;1.17;;;21.30;53.40;;;;;;4994843;28;20088;-65
2023/12/13 03:40:31;;;;;;;1.23;0.90;;;21.30;53.40;;;;;;4988302;28;20085;-64
2023/12/13 03:42:56;;;;;;;2.45;1.00;;;21.30;53.40;;;;;;4989492;28;20414;-66
2023/12/13 03:45:23;;;;;;;1.23;0.70;;;21.30;53.40;;;;;;4989656;28;20042;-65
2023/12/13 03:47:49;;;;;;;1.35;0.80;;;21.30;53.30;;;;;;4993118;28;20050;-64
2023/12/13 03:50:14;;;;;;;0.73;0.70;;;21.30;53.30;;;;;;4983336;28;20038;-65
2023/12/13 03:52:40;;;;;;;1.48;0.98;;;21.30;53.40;;;;;;4985233;28;20027;-65
2023/12/13 03:55:07;;;;;;;1.58;0.82;;;21.30;53.30;;;;;;4986826;28;20041;-65
2023/12/13 03:57:32;;;;;;;1.42;1.00;;;21.40;53.40;;;;;;4987011;28;20042;-66
2023/12/13 03:59:58;;;;;;;1.73;0.85;;;21.30;53.30;;;;;;4989038;28;20091;-65
2023/12/13 04:02:23;;;;;;;0.93;0.80;;;21.40;53.30;;;;;;4981085;28;20038;-65
2023/12/13 04:04:49;;;;;;;0.88;0.77;;;21.40;53.30;;;;;;4983290;28;20041;-66
2023/12/13 04:07:15;;;;;;;1.23;0.88;;;21.40;53.30;;;;;;4985967;28;20041;-66
2023/12/13 04:09:41;;;;;;;1.13;0.88;;;21.40;53.30;;;;;;4984603;28;20027;-65
2023/12/13 04:12:06;;;;;;;0.88;0.77;;;21.40;53.30;;;;;;4986912;28;20022;-65
2023/12/13 04:14:32;;;;;;;1.55;0.88;;;21.40;53.30;;;;;;4977255;28;20081;-65
2023/12/13 04:16:57;;;;;;;1.23;0.95;;;21.40;53.30;;;;;;4990715;28;20401;-66
2023/12/13 04:19:23;;;;;;;0.90;0.70;;;21.40;53.30;;;;;;4999007;28;20089;-65
2023/12/13 04:21:48;;;;;;;0.93;0.50;;;21.40;53.30;;;;;;4989627;28;20034;-66
2023/12/13 04:24:14;;;;;;;0.98;0.73;;;21.40;53.30;;;;;;4986654;28;20041;-64
2023/12/13 04:26:40;;;;;;;1.25;0.70;;;21.30;53.20;;;;;;4987055;28;20441;-66
2023/12/13 04:29:05;;;;;;;1.15;0.73;;;21.40;53.30;;;;;;4991671;28;20037;-65
2023/12/13 04:31:30;;;;;;;1.60;0.80;;;21.40;53.30;;;;;;4986254;28;20518;-66
2023/12/13 04:33:56;;;;;;;1.30;0.70;;;21.40;53.30;;;;;;4985049;28;20022;-65
2023/12/13 04:36:22;;;;;;;1.88;1.10;;;21.40;53.30;;;;;;4988883;28;20091;-65
2023/12/13 04:38:48;;;;;;;1.25;0.85;;;21.40;53.30;;;;;;4992242;28;20119;-67
2023/12/13 04:41:13;;;;;;;1.55;0.90;;;21.40;53.40;;;;;;4989728;28;20038;-66
2023/12/13 04:43:39;;;;;;;1.67;0.82;;;21.30;53.30;;;;;;4990773;28;20401;-66
2023/12/13 04:46:05;;;;;;;1.27;0.88;;;21.30;53.30;;;;;;4991461;28;20164;-65
2023/12/13 04:48:30;;;;;;;0.65;0.55;;;21.30;53.30;;;;;;4981124;28;20428;-66
2023/12/13 04:50:57;;;;;;;1.80;1.00;;;21.30;53.40;;;;;;4989479;28;20030;-65
2023/12/13 04:53:22;;;;;;;0.90;0.70;;;21.30;53.40;;;;;;4990692;28;20132;-66
2023/12/13 04:55:48;;;;;;;1.20;0.95;;;21.30;53.50;;;;;;4990966;28;20089;-65
2023/12/13 04:58:14;;;;;;;1.58;0.73;;;21.30;53.60;;;;;;4989563;28;20053;-66
2023/12/13 05:00:39;;;;;;;0.80;0.70;;;21.30;53.60;;;;;;4989847;28;20157;-65
2023/12/13 05:03:05;;;;;;;0.93;0.60;;;21.20;53.60;;;;;;4993562;28;20502;-66
2023/12/13 05:05:30;;;;;;;1.52;0.68;;;21.20;53.60;;;;;;4991675;28;20052;-66
2023/12/13 05:07:56;;;;;;;1.08;0.60;;;21.20;53.70;;;;;;4984656;28;20334;-66
2023/12/13 05:10:21;;;;;;;0.63;0.55;;;21.20;53.70;;;;;;4987727;28;20095;-66
2023/12/13 05:12:47;;;;;;;0.60;0.60;;;21.20;53.70;;;;;;4989686;28;20050;-65
2023/12/13 05:15:12;;;;;;;0.80;0.60;;;21.10;53.70;;;;;;4991160;28;20497;-66
2023/12/13 05:17:38;;;;;;;1.08;0.70;;;21.20;53.70;;;;;;4979262;28;20034;-66
2023/12/13 05:20:04;;;;;;;1.08;0.82;;;21.10;53.70;;;;;;4994117;28;20496;-65
2023/12/13 05:22:30;;;;;;;0.80;0.70;;;21.10;53.70;;;;;;4990809;28;20026;-66
2023/12/13 05:24:55;;;;;;;0.82;0.70;;;21.10;53.70;;;;;;4991488;28;21212;-66
2023/12/13 05:27:20;;;;;;;0.63;0.60;;;21.10;53.70;;;;;;4988616;28;20524;-66
2023/12/13 05:29:46;;;;;;;1.77;0.50;;;21.10;53.80;;;;;;4991554;28;20037;-65
2023/12/13 05:32:11;;;;;;;0.45;0.45;;;21.10;53.80;;;;;;4988433;28;20035;-65
2023/12/13 05:34:37;;;;;;;0.40;0.40;;;21.10;53.80;;;;;;4990349;28;20031;-66
2023/12/13 05:37:05;;;;;;;0.90;0.70;;;21.10;53.80;;;;;;4996952;28;20038;-65
2023/12/13 05:39:31;;;;;;;0.60;0.60;;;21.10;53.80;;;;;;4981437;28;20383;-65
2023/12/13 05:41:57;;;;;;;0.88;0.65;;;21.10;54.50;;;;;;4993088;28;20397;-66
2023/12/13 05:44:22;;;;;;;1.30;0.68;;;21.10;53.90;;;;;;4992483;28;20042;-66
2023/12/13 05:46:48;;;;;;;0.85;0.50;;;21.10;53.90;;;;;;4988829;28;20121;-65
2023/12/13 05:49:15;;;;;;;0.60;0.60;;;21.10;53.90;;;;;;4991820;28;20496;-64
2023/12/13 05:51:40;;;;;;;0.60;0.60;;;21.10;53.90;;;;;;4997606;28;20026;-65
2023/12/13 05:54:06;;;;;;;0.60;0.60;;;21.00;53.80;;;;;;4996434;28;20042;-66
2023/12/13 05:56:31;;;;;;;0.77;0.40;;;21.00;53.80;;;;;;4993956;28;20039;-66
2023/12/13 05:58:57;;;;;;;1.05;0.60;;;21.00;53.70;;;;;;4998652;28;20077;-66
2023/12/13 06:01:22;;;;;;;0.50;0.43;;;21.00;53.80;;;;;;4993852;28;20041;-66
2023/12/13 06:03:48;;;;;;;0.60;0.60;;;21.00;53.80;;;;;;4998064;28;20042;-66
2023/12/13 06:06:13;;;;;;;0.90;0.50;;;21.00;53.80;;;;;;4997939;28;20030;-66
2023/12/13 06:08:40;;;;;;;0.70;0.52;;;21.10;53.80;;;;;;4986426;28;20031;-63
2023/12/13 06:11:07;;;;;;;0.90;0.43;;;21.00;53.70;;;;;;5000683;28;20030;-66
2023/12/13 06:13:32;;;;;;;0.95;0.50;;;21.10;53.80;;;;;;4991185;28;20034;-65
2023/12/13 06:15:58;;;;;;;0.45;0.40;;;21.10;53.80;;;;;;4994300;28;20040;-66
2023/12/13 06:18:23;;;;;;;1.02;0.40;;;21.10;53.80;;;;;;4992739;28;20037;-66
2023/12/13 06:20:49;;;;;;;0.60;0.60;;;21.10;54.40;;;;;;4989347;28;20505;-65
2023/12/13 06:23:14;;;;;;;0.57;0.55;;;21.10;53.70;;;;;;4984679;28;20341;-66
2023/12/13 06:25:40;;;;;;;0.82;0.65;;;21.10;53.70;;;;;;4994145;28;20049;-66
2023/12/13 06:28:05;;;;;;;0.57;0.50;;;21.10;53.70;;;;;;4995007;28;20388;-65
2023/12/13 06:30:31;;;;;;;0.52;0.40;;;21.10;53.70;;;;;;4995854;28;20038;-65
2023/12/13 06:32:57;;;;;;;0.68;0.60;;;21.10;53.70;;;;;;4998846;28;21929;-66
2023/12/13 06:35:22;;;;;;;0.50;0.50;;;21.10;53.70;;;;;;4996132;28;20044;-67
2023/12/13 06:37:48;;;;;;;1.35;0.50;;;21.10;53.70;;;;;;4986726;28;20458;-67
2023/12/13 06:40:14;;;;;;;0.70;0.50;;;21.20;53.70;;;;;;4999211;28;20022;-66
2023/12/13 06:42:40;;;;;;;6.20;0.80;;;21.10;53.60;;;;;;4994643;28;20382;-67
2023/12/13 06:45:07;;;;;;;0.50;0.40;;;21.10;53.60;;;;;;4994673;28;20038;-67
2023/12/13 06:47:32;;;;;;;0.75;0.45;;;21.20;53.60;;;;;;4995952;28;20030;-67
2023/12/13 06:49:58;;;;;;;0.43;0.43;;;21.20;53.60;;;;;;4996130;28;20041;-66
2023/12/13 06:52:23;;;;;;;0.98;0.70;;;21.20;53.60;;;;;;4996128;28;20052;-67
2023/12/13 06:54:49;;;;;;;1.33;0.47;;;21.20;53.50;;;;;;4997808;28;20038;-66
2023/12/13 06:57:16;;;;;;;1.92;0.50;;;21.20;53.50;;;;;;5000604;28;20030;-68
2023/12/13 06:59:42;;;;;;;1.38;1.00;;;21.20;53.50;;;;;;4992572;28;20034;-67
2023/12/13 07:02:07;;;;;;;0.68;0.60;;;21.20;53.40;;;;;;4999337;28;20087;-67
2023/12/13 07:04:35;;;;;;;0.70;0.57;;;21.20;53.40;;;;;;4997221;28;20065;-66
2023/12/13 07:07:00;;;;;;;1.27;0.63;;;21.20;53.40;;;;;;4997826;28;20439;-67
2023/12/13 07:09:26;;;;;;;0.82;0.60;;;21.20;53.40;;;;;;4988553;28;20042;-66
2023/12/13 07:11:51;;;;;;;0.70;0.50;;;21.20;53.40;;;;;;4986435;28;20023;-67
2023/12/13 07:14:17;;;;;;;1.83;0.60;;;21.20;53.30;;;;;;4981302;28;20663;-67
2023/12/13 07:16:43;;;;;;;1.40;0.70;;;21.20;53.40;;;;;;4981181;28;20457;-67
2023/12/13 07:19:09;;;;;;;1.98;0.60;;;21.20;53.50;;;;;;4981488;28;20069;-68
2023/12/13 07:21:35;;;;;;;2.42;0.90;;;21.10;53.60;;;;;;4980814;28;20343;-67
2023/12/13 07:24:00;;;;;;;3.67;1.38;;;21.10;53.70;;;;;;4981282;28;20091;-65
2023/12/13 07:26:26;;;;;;;3.88;1.40;;;21.00;53.70;;;;;;4978837;28;20034;-64
2023/12/13 07:28:51;;;;;;;2.47;1.75;;;21.00;53.80;;;;;;4978215;28;20117;-66
2023/12/13 07:31:18;;;;;;;2.95;1.55;;;20.90;53.90;;;;;;4994089;28;20030;-65
2023/12/13 07:33:43;;;;;;;2.63;1.95;;;20.90;54.00;;;;;;4976083;28;20345;-66
2023/12/13 07:36:12;;;;;;;6.15;2.13;;;20.80;54.10;;;;;;4976492;28;20588;-65
2023/12/13 07:38:38;;;;;;;4.05;2.75;;;20.80;54.30;;;;;;4977199;28;20026;-64
2023/12/13 07:41:04;;;;;;;4.32;2.67;;;20.70;54.30;;;;;;4962250;28;20141;-65
2023/12/13 07:43:30;;;;;;;5.53;2.72;;;20.70;54.40;;;;;;4980868;28;20515;-66
2023/12/13 07:45:55;;;;;;;5.80;2.85;;;20.70;54.60;;;;;;4978653;28;20034;-65
2023/12/13 07:48:22;;;;;;;7.50;3.70;;;20.60;54.70;;;;;;4975473;28;20509;-66
2023/12/13 07:50:47;;;;;;;6.20;3.55;;;20.60;54.80;;;;;;4985569;28;20501;-65
2023/12/13 07:53:13;;;;;;;5.85;3.65;;;20.60;54.90;;;;;;4990629;28;20029;-66
2023/12/13 07:55:39;;;;;;;9.20;4.45;;;20.50;54.80;;;;;;4983400;28;20050;-66
2023/12/13 07:58:04;;;;;;;9.15;4.15;;;20.50;54.90;;;;;;4994694;28;20026;-66
2023/12/13 08:00:29;;;;;;;7.63;4.28;;;20.60;55.00;;;;;;4990269;28;20018;-67
2023/12/13 08:02:55;;;;;;;5.28;3.50;;;20.50;54.80;;;;;;4999458;28;20026;-66
2023/12/13 08:05:21;;;;;;;8.02;4.38;;;20.60;54.80;;;;;;4993939;28;20040;-66
2023/12/13 08:07:46;;;;;;;8.05;4.05;;;20.50;54.70;;;;;;4996550;28;20118;-66
2023/12/13 08:10:12;;;;;;;7.32;4.30;;;20.60;54.70;;;;;;4999961;28;20080;-65
2023/12/13 08:12:40;;;;;;;5.90;4.00;;;20.60;54.60;;;;;;4992293;28;20056;-67
2023/12/13 08:15:05;;;;;;;8.50;4.20;;;20.60;54.50;;;;;;4977842;28;20517;-65
2023/12/13 08:17:33;;;;;;;8.70;4.47;;;20.60;54.40;;;;;;4987915;28;20034;-66
2023/12/13 08:19:59;;;;;;;10.48;4.88;;;20.70;54.40;;;;;;4993823;28;20038;-67
2023/12/13 08:22:25;;;;;;;8.15;4.30;;;20.70;54.20;;;;;;4994808;28;20034;-66
2023/12/13 08:24:50;;;;;;;10.90;4.47;;;20.80;54.10;;;;;;4992521;28;20061;-65
2023/12/13 08:27:16;;;;;;;7.90;4.30;;;20.90;53.90;;;;;;4992040;28;20617;-66
2023/12/13 08:29:41;;;;;;;9.55;4.13;;;21.00;53.60;;;;;;4992660;28;20076;-64
2023/12/13 08:32:07;;;;;;;6.88;4.28;;;21.20;53.50;;;;;;4994490;28;20054;-66
2023/12/13 08:34:32;;;;;;;8.75;5.00;;;21.30;53.20;;;;;;4998274;28;20042;-65
2023/12/13 08:36:58;;;;;;;7.00;4.32;;;21.40;52.90;;;;;;4991516;28;20073;-66
2023/12/13 08:39:24;;;;;;;9.57;4.60;;;21.50;52.70;;;;;;5000164;28;20033;-66
2023/12/13 08:41:49;;;;;;;6.95;4.22;;;21.60;52.50;;;;;;4986336;28;20065;-66
2023/12/13 08:44:15;;;;;;;9.23;4.07;;;21.80;52.30;;;;;;4997429;28;20053;-66
2023/12/13 08:46:40;;;;;;;7.13;4.32;;;21.90;52.10;;;;;;4992401;28;20030;-66
2023/12/13 08:49:06;;;;;;;7.72;3.97;;;22.00;51.90;;;;;;4994309;28;20503;-65
2023/12/13 08:51:31;;;;;;;9.45;4.25;;;22.10;51.80;;;;;;4998531;28;20030;-64
2023/12/13 08:53:57;;;;;;;8.95;4.65;;;22.10;51.60;;;;;;4992162;28;20038;-65
2023/12/13 08:56:22;;;;;;;12.07;4.00;;;22.20;51.50;;;;;;4993580;28;20512;-67
2023/12/13 08:58:48;;;;;;;9.63;4.00;;;22.30;51.40;;;;;;4982075;28;20027;-68
2023/12/13 09:01:14;;;;;;;9.77;4.43;;;22.40;51.30;;;;;;5000314;28;20455;-67
2023/12/13 09:03:40;;;;;;;6.97;3.78;;;22.50;51.20;;;;;;4991738;28;20030;-67
2023/12/13 09:06:06;;;;;;;7.53;4.07;;;22.50;51.10;;;;;;5000162;28;20022;-67
2023/12/13 09:08:32;;;;;;;4.70;3.83;;;22.50;51.10;;;;;;4985630;28;20088;-66
2023/12/13 09:10:57;;;;;;;8.45;4.05;;;22.50;51.10;;;;;;4991711;28;20062;-67
2023/12/13 09:13:23;;;;;;;7.90;3.83;;;22.60;51.10;;;;;;4999416;28;20113;-66
2023/12/13 09:15:48;;;;;;;6.57;4.20;;;22.60;51.10;;;;;;4994995;28;20023;-67
2023/12/13 09:18:14;;;;;;;8.02;4.07;;;22.60;51.20;;;;;;4988395;28;20034;-67
2023/12/13 09:20:40;;;;;;;9.65;4.38;;;22.50;51.20;;;;;;4998804;28;20057;-67
2023/12/13 09:23:06;;;;;;;9.93;4.60;;;22.50;51.20;;;;;;4996684;28;20037;-67
2023/12/13 09:25:32;;;;;;;4.88;3.55;;;22.50;51.30;;;;;;5004167;28;20104;-63
2023/12/13 09:27:57;;;;;;;6.43;3.80;;;22.50;51.40;;;;;;4994849;28;20062;-67
2023/12/13 09:30:23;;;;;;;9.07;4.35;;;22.40;51.50;;;;;;4993937;28;20413;-67
2023/12/13 09:32:49;;;;;;;7.45;3.60;;;22.40;51.60;;;;;;4997447;28;20569;-67
2023/12/13 09:35:14;;;;;;;6.70;3.35;;;22.30;51.70;;;;;;5005653;28;20045;-68
2023/12/13 09:37:41;;;;;;;6.95;3.80;;;22.30;51.80;;;;;;4999804;28;20069;-68
2023/12/13 09:40:14;;;;;;;5.57;3.80;;;22.20;51.90;;;;;;5002425;28;20409;-67
2023/12/13 09:42:44;;;;;;;6.35;3.65;;;22.20;52.00;;;;;;5003449;28;20025;-68
2023/12/13 09:45:15;;;;;;;6.70;4.00;;;22.20;52.10;;;;;;4984258;28;20053;-68
2023/12/13 09:47:40;;;;;;;6.53;3.78;;;22.10;52.20;;;;;;5002182;28;20084;-67
2023/12/13 09:50:06;;;;;;;5.82;3.40;;;22.10;52.40;;;;;;5004733;28;20513;-66
2023/12/13 09:52:34;;;;;;;7.35;3.38;;;22.00;52.40;;;;;;5003475;28;20497;-66
2023/12/13 09:55:01;;;;;;;5.05;3.83;;;22.00;52.50;;;;;;5002023;28;20050;-67
2023/12/13 09:57:27;;;;;;;4.40;3.10;;;21.90;52.50;;;;;;4997364;28;20117;-66
2023/12/13 09:59:52;;;;;;;6.93;3.45;;;21.90;52.60;;;;;;4998852;28;20066;-66
2023/12/13 10:02:18;;;;;;;7.38;3.70;;;21.90;52.70;;;;;;4987613;28;20026;-66
2023/12/13 10:04:44;;;;;;;6.25;3.35;;;21.80;52.70;;;;;;4986637;28;20093;-65
2023/12/13 10:07:10;;;;;;;6.95;3.80;;;21.80;52.80;;;;;;4986362;28;20030;-66
2023/12/13 10:09:35;;;;;;;6.63;3.17;;;21.80;52.80;;;;;;4989604;28;20037;-68
2023/12/13 10:12:03;;;;;;;6.10;3.33;;;21.80;52.90;;;;;;4991740;28;20638;-67
2023/12/13 10:14:30;;;;;;;4.78;3.50;;;21.70;52.90;;;;;;4999658;28;21180;-67
2023/12/13 10:16:56;;;;;;;5.82;3.60;;;21.70;53.00;;;;;;4990084;28;20554;-68
2023/12/13 10:19:21;;;;;;;6.40;3.47;;;21.70;53.10;;;;;;4989410;28;20592;-67
2023/12/13 10:21:50;;;;;;;5.18;2.90;;;21.60;53.00;;;;;;4990746;28;20039;-66
2023/12/13 10:24:16;;;;;;;5.38;2.85;;;21.60;53.10;;;;;;4966668;28;20034;-67
2023/12/13 10:26:42;;;;;;;4.90;3.33;;;21.60;53.10;;;;;;4965228;28;20045;-64
2023/12/13 10:29:07;;;;;;;6.47;3.58;;;21.60;53.20;;;;;;4979333;28;20152;-67
2023/12/13 10:31:33;;;;;;;6.28;3.80;;;21.60;53.20;;;;;;4964843;28;20034;-68
2023/12/13 10:33:59;;;;;;;5.18;3.35;;;21.50;53.20;;;;;;4961259;28;20073;-66
2023/12/13 10:36:29;;;;;;;3.78;2.72;;;21.50;53.20;;;;;;4958766;28;20571;-67
2023/12/13 10:38:56;;;;;;;5.00;2.92;;;21.50;53.30;;;;;;4970324;28;20670;-67
2023/12/13 10:41:27;;;;;;;4.75;2.95;;;21.50;53.30;;;;;;4984129;28;20026;-67
2023/12/13 10:43:58;;;;;;;5.85;3.20;;;21.50;53.30;;;;;;4981622;28;20034;-67
2023/12/13 10:46:31;;;;;;;4.25;3.05;;;21.50;53.30;;;;;;4973205;28;20521;-67
2023/12/13 10:48:59;;;;;;;4.93;3.65;;;21.40;53.30;;;;;;4983865;28;20041;-64
2023/12/13 10:51:26;;;;;;;3.58;2.90;;;21.40;53.40;;;;;;4977657;28;20027;-66
2023/12/13 10:53:52;;;;;;;5.95;3.13;;;21.40;53.40;;;;;;4978067;28;20026;-67
2023/12/13 10:56:18;;;;;;;4.95;2.88;;;21.40;53.30;;;;;;4977524;28;20023;-68
2023/12/13 10:58:44;;;;;;;6.05;3.03;;;21.40;53.40;;;;;;4983445;28;20567;-63
2023/12/13 11:01:11;;;;;;;3.83;2.70;;;21.40;53.40;;;;;;4981138;28;20042;-68
2023/12/13 11:03:55;;;;;;;4.75;2.80;;;21.40;53.40;;;;;;4980871;28;20026;-67
2023/12/13 11:06:21;;;;;;;5.93;2.85;;;21.40;53.40;;;;;;4968754;28;20026;-66
2023/12/13 11:08:47;;;;;;;4.57;3.15;;;21.40;53.40;;;;;;4980347;28;20509;-67
2023/12/13 11:11:14;;;;;;;3.05;2.25;;;21.40;53.40;;;;;;4971551;28;20030;-66
2023/12/13 11:13:47;;;;;;;5.18;2.92;;;21.30;53.40;;;;;;4982966;28;20057;-68
2023/12/13 11:16:20;;;;;;;3.88;3.10;;;21.30;53.40;;;;;;4977520;28;20133;-67
2023/12/13 11:18:47;;;;;;;3.17;2.47;;;21.30;53.40;;;;;;4984159;28;20033;-68
2023/12/13 11:21:45;;;;;;;4.70;2.90;;;21.30;53.40;;;;;;4971836;28;20551;-68
2023/12/13 11:24:22;;;;;;;3.80;2.65;;;21.30;53.40;;;;;;4955590;28;20042;-67
2023/12/13 11:26:58;;;;;;;3.65;2.92;;;21.30;53.40;;;;;;4973893;28;20031;-67
2023/12/13 11:29:27;;;;;;;3.88;2.58;;;21.30;53.40;;;;;;4979356;28;20038;-67
2023/12/13 11:31:54;;;;;;;3.35;2.45;;;21.30;53.40;;;;;;4984876;28;20037;-67
2023/12/13 11:34:32;;;;;;;4.35;2.78;;;21.30;53.50;;;;;;4985790;28;20113;-67
2023/12/13 11:36:59;;;;;;;5.43;3.22;;;21.30;53.50;;;;;;4978610;28;20078;-67
2023/12/13 11:39:25;;;;;;;4.63;2.78;;;21.30;53.50;;;;;;4973273;28;20034;-61
2023/12/13 11:41:51;;;;;;;4.82;3.35;;;21.30;53.50;;;;;;4973291;28;20035;-66
2023/12/13 11:44:16;;;;;;;4.38;2.75;;;21.30;53.50;;;;;;4982072;28;20173;-65
2023/12/13 11:46:42;;;;;;;4.13;2.80;;;21.20;53.50;;;;;;4979261;28;20031;-65
2023/12/13 11:49:07;;;;;;;3.92;2.25;;;21.30;54.20;;;;;;4981445;28;20045;-64
2023/12/13 11:51:33;;;;;;;3.45;2.33;;;21.30;53.60;;;;;;4980620;28;20617;-63
2023/12/13 11:54:00;;;;;;;6.22;2.40;;;21.20;53.60;;;;;;4980592;28;20031;-66
2023/12/13 11:56:25;;;;;;;4.97;2.65;;;21.20;53.60;;;;;;4984701;28;20026;-66
2023/12/13 11:58:51;;;;;;;3.58;2.47;;;21.20;53.70;;;;;;4962511;28;20636;-65
2023/12/13 12:01:19;;;;;;;3.22;2.17;;;21.20;53.70;;;;;;4985006;28;20101;-66
2023/12/13 12:03:45;;;;;;;4.28;2.15;;;21.10;53.80;;;;;;4984654;28;20643;-65
2023/12/13 12:06:16;;;;;;;3.40;2.38;;;21.10;53.90;;;;;;4979456;28;20031;-66
2023/12/13 12:08:43;;;;;;;3.03;2.30;;;21.10;53.90;;;;;;4984898;28;20101;-66
2023/12/13 12:11:12;;;;;;;3.45;2.67;;;21.00;54.00;;;;;;4979841;28;20034;-66
2023/12/13 12:13:40;;;;;;;4.45;2.53;;;21.00;54.10;;;;;;4988075;28;20031;-66
2023/12/13 12:16:06;;;;;;;4.47;2.10;;;21.00;54.10;;;;;;4984118;28;20022;-66
2023/12/13 12:18:31;;;;;;;4.57;2.65;;;21.00;54.10;;;;;;4973053;28;20061;-66
2023/12/13 12:20:57;;;;;;;3.15;2.22;;;20.90;54.20;;;;;;4977354;28;20121;-66
2023/12/13 12:23:22;;;;;;;3.40;2.20;;;20.90;54.20;;;;;;4979793;28;20533;-66
2023/12/13 12:25:51;;;;;;;2.72;2.22;;;20.90;54.30;;;;;;4983875;28;20125;-63
2023/12/13 12:28:17;;;;;;;3.55;2.67;;;20.80;54.30;;;;;;4980137;28;20038;-63
2023/12/13 12:30:44;;;;;;;2.40;2.00;;;20.80;54.30;;;;;;4968625;28;20109;-65
2023/12/13 12:33:10;;;;;;;2.72;1.92;;;20.70;54.50;;;;;;4965908;28;20062;-66
2023/12/13 12:35:35;;;;;;;2.85;1.77;;;20.70;54.50;;;;;;4972243;28;20450;-65
2023/12/13 12:38:01;;;;;;;5.07;2.42;;;20.70;54.60;;;;;;4984692;28;20437;-66
2023/12/13 12:40:27;;;;;;;2.75;1.90;;;20.70;54.60;;;;;;4981573;28;20089;-66